createdAt,value
2018-06-03T00:01:39.568Z,69.07
2018-06-03T00:04:08.448Z,73.18
2018-06-03T00:06:37.332Z,68.85
2018-06-03T00:09:05.635Z,74.20
2018-06-03T00:11:34.540Z,71.20
2018-06-03T00:14:03.419Z,72.35
2018-06-03T00:16:32.309Z,70.35
2018-06-03T00:19:01.192Z,83.70
2018-06-03T00:21:41.332Z,80.38
2018-06-03T00:24:09.988Z,80.43
2018-06-03T00:26:38.865Z,78.87
2018-06-03T00:29:07.757Z,75.18
2018-06-03T00:31:36.626Z,79.82
2018-06-03T00:34:05.194Z,73.43
2018-06-03T00:36:45.250Z,73.37
2018-06-03T00:39:13.560Z,73.47
2018-06-03T00:41:41.867Z,71.10
2018-06-03T00:44:10.751Z,71.85
2018-06-03T00:46:39.644Z,76.28
2018-06-03T00:49:08.538Z,73.72
2018-06-03T00:51:37.427Z,71.45
2018-06-03T00:54:06.321Z,75.60
2018-06-03T00:56:45.796Z,72.97
2018-06-03T00:59:14.094Z,68.32
2018-06-03T01:01:42.421Z,76.47
2018-06-03T01:04:11.330Z,75.32
2018-06-03T01:06:40.220Z,72.12
2018-06-03T01:09:09.107Z,70.95
2018-06-03T01:11:38.007Z,68.85
2018-06-03T01:14:06.649Z,64.70
2018-06-03T01:16:35.495Z,60.88
2018-06-03T01:19:04.381Z,63.50
2018-06-03T01:21:33.282Z,67.03
2018-06-03T01:24:02.165Z,76.28
2018-06-03T01:26:31.032Z,77.57
2018-06-03T01:28:59.356Z,72.43
2018-06-03T01:31:28.209Z,76.65
2018-06-03T01:33:57.133Z,84.18
2018-06-03T01:36:26.017Z,74.20
2018-06-03T01:38:54.885Z,76.93
2018-06-03T01:41:23.809Z,77.45
2018-06-03T01:43:52.666Z,77.45
2018-06-03T01:46:21.551Z,81.75
2018-06-03T01:48:49.866Z,85.43
2018-06-03T01:51:18.436Z,86.65
2018-06-03T01:53:47.306Z,88.18
2018-06-03T01:56:16.188Z,97.65
2018-06-03T01:58:44.491Z,86.13
2018-06-03T02:01:13.395Z,87.07
2018-06-03T02:03:42.287Z,90.57
2018-06-03T02:06:10.597Z,89.73
2018-06-03T02:08:38.939Z,87.80
2018-06-03T02:11:07.891Z,86.45
2018-06-03T02:13:36.212Z,86.10
2018-06-03T02:16:04.558Z,84.10
2018-06-03T02:18:32.896Z,88.23
2018-06-03T02:21:01.786Z,82.93
2018-06-03T02:23:30.143Z,79.47
2018-06-03T02:25:58.464Z,77.87
2018-06-03T02:28:26.783Z,76.90
2018-06-03T02:30:55.108Z,75.00
2018-06-03T02:33:23.552Z,68.77
2018-06-03T02:35:51.878Z,65.50
2018-06-03T02:38:20.213Z,61.97
2018-06-03T02:40:49.442Z,65.30
2018-06-03T02:43:21.830Z,66.30
2018-06-03T02:45:50.220Z,67.77
2018-06-03T02:48:18.687Z,56.10
2018-06-03T02:50:47.139Z,41.10
2018-06-03T02:53:15.597Z,37.97
2018-06-03T02:55:44.810Z,36.80
2018-06-03T02:58:13.167Z,31.93
2018-06-03T03:00:41.472Z,38.40
2018-06-03T03:03:09.784Z,36.53
2018-06-03T03:05:38.977Z,35.90
2018-06-03T03:08:07.276Z,36.23
2018-06-03T03:10:35.586Z,38.33
2018-06-03T03:13:03.887Z,36.23
2018-06-03T03:15:32.193Z,35.60
2018-06-03T03:18:00.507Z,34.73
2018-06-03T03:20:28.822Z,39.87
2018-06-03T03:22:57.129Z,33.53
2018-06-03T03:25:25.202Z,34.57
2018-06-03T03:27:53.511Z,34.17
2018-06-03T03:30:21.829Z,29.87
2018-06-03T03:32:50.150Z,32.90
2018-06-03T03:35:18.489Z,33.20
2018-06-03T03:37:46.818Z,26.10
2018-06-03T03:40:15.162Z,26.83
2018-06-03T03:42:43.488Z,23.57
2018-06-03T03:45:11.797Z,24.67
2018-06-03T03:47:40.105Z,28.70
2018-06-03T03:50:09.196Z,29.03
2018-06-03T03:52:37.496Z,31.37
2018-06-03T03:55:05.475Z,28.20
2018-06-03T03:57:33.784Z,30.97
2018-06-03T04:00:02.308Z,29.37
2018-06-03T04:02:30.605Z,32.00
2018-06-03T04:04:59.876Z,30.50
2018-06-03T04:07:28.207Z,36.43
2018-06-03T04:09:56.508Z,39.80
2018-06-03T04:12:24.820Z,37.47
2018-06-03T04:14:53.131Z,34.43
2018-06-03T04:17:21.191Z,36.20
2018-06-03T04:19:49.515Z,35.90
2018-06-03T04:22:17.866Z,32.40
2018-06-03T04:24:46.699Z,31.93
2018-06-03T04:27:15.002Z,33.80
2018-06-03T04:29:43.318Z,30.70
2018-06-03T04:32:12.385Z,32.10
2018-06-03T04:34:40.695Z,33.30
2018-06-03T04:37:09.053Z,27.43
2018-06-03T04:39:37.376Z,30.37
2018-06-03T04:42:06.235Z,28.30
2018-06-03T04:44:34.530Z,27.30
2018-06-03T04:47:02.838Z,29.80
2018-06-03T04:49:31.911Z,30.87
2018-06-03T04:52:00.256Z,31.33
2018-06-03T04:54:28.571Z,30.77
2018-06-03T04:56:56.892Z,34.93
2018-06-03T04:59:25.212Z,42.60
2018-06-03T05:01:53.711Z,31.73
2018-06-03T05:04:22.624Z,34.47
2018-06-03T05:06:51.495Z,31.25
2018-06-03T05:09:19.823Z,35.50
2018-06-03T05:11:48.928Z,32.70
2018-06-03T05:14:17.790Z,31.52
2018-06-03T05:16:46.678Z,33.83
2018-06-03T05:19:15.594Z,36.83
2018-06-03T05:21:44.493Z,31.05
2018-06-03T05:24:13.371Z,33.53
2018-06-03T05:26:42.255Z,34.53
2018-06-03T05:29:11.127Z,34.65
2018-06-03T05:31:40.801Z,28.02
2018-06-03T05:34:09.656Z,27.95
2018-06-03T05:36:38.514Z,28.35
2018-06-03T05:39:08.940Z,25.83
2018-06-03T05:41:37.815Z,28.80
2018-06-03T05:44:06.420Z,32.83
2018-06-03T05:46:35.029Z,25.23
2018-06-03T05:49:03.915Z,28.75
2018-06-03T05:51:32.787Z,27.90
2018-06-03T05:54:01.663Z,27.27
2018-06-03T05:56:30.552Z,30.85
2018-06-03T05:58:59.438Z,26.92
2018-06-03T06:01:28.302Z,27.02
2018-06-03T06:03:57.196Z,27.00
2018-06-03T06:06:26.061Z,27.27
2018-06-03T06:08:54.955Z,27.98
2018-06-03T06:11:24.018Z,28.45
2018-06-03T06:13:52.923Z,28.30
2018-06-03T06:16:21.797Z,28.75
2018-06-03T06:18:51.459Z,29.33
2018-06-03T06:21:20.331Z,28.05
2018-06-03T06:23:49.249Z,26.37
2018-06-03T06:26:18.155Z,27.50
2018-06-03T06:28:47.028Z,28.15
2018-06-03T06:31:15.913Z,29.20
2018-06-03T06:33:44.803Z,29.12
2018-06-03T06:36:13.699Z,27.95
2018-06-03T06:38:42.620Z,29.70
2018-06-03T06:41:11.224Z,27.37
2018-06-03T06:43:40.127Z,26.12
2018-06-03T06:46:09.093Z,28.80
2018-06-03T06:48:38.757Z,28.98
2018-06-03T06:51:07.653Z,24.83
2018-06-03T06:53:36.000Z,24.37
2018-06-03T06:56:04.894Z,26.12
2018-06-03T06:58:33.772Z,25.20
2018-06-03T07:01:02.676Z,22.58
2018-06-03T07:03:31.552Z,21.62
2018-06-03T07:06:00.479Z,23.83
2018-06-03T07:08:30.145Z,24.20
2018-06-03T07:10:59.069Z,28.15
2018-06-03T07:13:27.928Z,26.48
2018-06-03T07:15:56.809Z,26.33
2018-06-03T07:18:26.476Z,26.70
2018-06-03T07:20:55.348Z,25.95
2018-06-03T07:23:24.215Z,27.15
2018-06-03T07:25:53.113Z,27.02
2018-06-03T07:28:22.760Z,27.17
2018-06-03T07:30:51.660Z,26.02
2018-06-03T07:33:20.546Z,25.30
2018-06-03T07:35:49.450Z,23.83
2018-06-03T07:38:18.394Z,23.95
2018-06-03T07:40:47.485Z,25.55
2018-06-03T07:43:16.377Z,23.00
2018-06-03T07:45:45.260Z,22.33
2018-06-03T07:48:14.168Z,24.27
2018-06-03T07:50:43.844Z,21.08
2018-06-03T07:53:12.742Z,21.92
2018-06-03T07:55:41.898Z,22.40
2018-06-03T07:58:10.837Z,20.30
2018-06-03T08:00:39.724Z,21.20
2018-06-03T08:03:08.621Z,20.67
2018-06-03T08:05:37.513Z,21.12
2018-06-03T08:08:06.376Z,21.42
2018-06-03T08:10:36.079Z,19.05
2018-06-03T08:13:04.975Z,21.62
2018-06-03T08:15:33.899Z,18.60
2018-06-03T08:18:02.806Z,21.35
2018-06-03T08:20:31.694Z,20.60
2018-06-03T08:23:00.628Z,20.17
2018-06-03T08:25:29.531Z,20.08
2018-06-03T08:27:58.484Z,22.05
2018-06-03T08:30:27.376Z,21.25
2018-06-03T08:32:56.291Z,21.30
2018-06-03T08:35:25.176Z,21.40
2018-06-03T08:37:54.056Z,22.58
2018-06-03T08:40:22.977Z,19.95
2018-06-03T08:42:51.897Z,18.27
2018-06-03T08:45:20.778Z,18.87
2018-06-03T08:47:49.695Z,19.05
2018-06-03T08:50:19.364Z,17.80
2018-06-03T08:52:48.285Z,17.83
2018-06-03T08:55:17.173Z,17.85
2018-06-03T08:57:46.099Z,19.33
2018-06-03T09:00:15.007Z,18.98
2018-06-03T09:02:43.915Z,18.30
2018-06-03T09:05:12.808Z,18.30
2018-06-03T09:07:42.699Z,18.52
2018-06-03T09:10:12.772Z,16.35
2018-06-03T09:12:41.693Z,16.87
2018-06-03T09:15:10.597Z,15.18
2018-06-03T09:18:10.526Z,22.52
2018-06-03T09:20:39.125Z,14.50
2018-06-03T09:23:07.965Z,14.90
2018-06-03T09:25:36.872Z,16.57
2018-06-03T09:28:05.768Z,16.07
2018-06-03T09:30:34.734Z,17.37
2018-06-03T09:33:03.774Z,16.10
2018-06-03T09:35:32.846Z,17.70
2018-06-03T09:38:02.255Z,18.57
2018-06-03T09:40:31.077Z,15.83
2018-06-03T09:42:59.996Z,17.30
2018-06-03T09:45:29.012Z,17.23
2018-06-03T09:47:57.881Z,18.35
2018-06-03T09:50:26.953Z,18.67
2018-06-03T09:52:55.917Z,20.95
2018-06-03T09:55:25.514Z,16.52
2018-06-03T09:57:54.439Z,17.05
2018-06-03T10:00:28.411Z,16.02
2018-06-03T10:02:57.438Z,17.55
2018-06-03T10:05:26.451Z,16.65
2018-06-03T10:07:55.350Z,15.28
2018-06-03T10:10:24.194Z,14.20
2018-06-03T10:12:53.021Z,18.15
2018-06-03T10:15:21.844Z,16.42
2018-06-03T10:17:50.674Z,15.58
2018-06-03T10:20:19.528Z,16.02
2018-06-03T10:22:48.441Z,15.88
2018-06-03T10:25:17.320Z,14.93
2018-06-03T10:27:46.246Z,14.23
2018-06-03T10:30:15.098Z,13.55
2018-06-03T10:32:43.953Z,14.50
2018-06-03T10:35:12.838Z,14.50
2018-06-03T10:37:42.433Z,15.98
2018-06-03T10:40:11.340Z,14.73
2018-06-03T10:42:40.251Z,14.53
2018-06-03T10:45:09.096Z,14.95
2018-06-03T10:47:38.039Z,14.30
2018-06-03T10:50:06.960Z,18.50
2018-06-03T10:52:35.820Z,13.38
2018-06-03T10:55:04.703Z,15.63
2018-06-03T10:57:33.618Z,13.38
2018-06-03T11:00:02.513Z,11.80
2018-06-03T11:02:31.402Z,12.65
2018-06-03T11:05:00.278Z,14.15
2018-06-03T11:07:29.122Z,10.48
2018-06-03T11:09:58.015Z,11.28
2018-06-03T11:12:26.913Z,9.65
2018-06-03T11:14:55.197Z,11.20
2018-06-03T11:17:30.398Z,15.50
2018-06-03T11:19:59.269Z,12.33
2018-06-03T11:22:28.130Z,14.93
2018-06-03T11:24:56.993Z,13.80
2018-06-03T11:27:25.870Z,12.58
2018-06-03T11:29:55.073Z,9.65
2018-06-03T11:32:23.935Z,13.22
2018-06-03T11:34:52.774Z,13.13
2018-06-03T11:37:21.591Z,13.28
2018-06-03T11:39:50.458Z,12.95
2018-06-03T11:42:19.294Z,11.78
2018-06-03T11:44:48.126Z,10.20
2018-06-03T11:47:16.977Z,11.97
2018-06-03T11:49:45.796Z,10.80
2018-06-03T11:52:14.808Z,11.28
2018-06-03T11:54:43.751Z,10.90
2018-06-03T11:57:12.772Z,9.30
2018-06-03T11:59:43.662Z,9.18
2018-06-03T12:02:13.979Z,8.75
2018-06-03T12:04:42.599Z,10.78
2018-06-03T12:07:11.544Z,8.38
2018-06-03T12:09:40.403Z,9.38
2018-06-03T12:12:09.264Z,10.65
2018-06-03T12:14:38.157Z,9.88
2018-06-03T12:17:07.009Z,9.10
2018-06-03T12:19:35.880Z,9.13
2018-06-03T12:22:04.835Z,7.15
2018-06-03T12:24:33.424Z,9.43
2018-06-03T12:27:02.019Z,10.13
2018-06-03T12:29:30.915Z,9.40
2018-06-03T12:31:59.905Z,10.75
2018-06-03T12:34:28.805Z,9.83
2018-06-03T12:36:57.737Z,9.25
2018-06-03T12:39:26.603Z,11.45
2018-06-03T12:41:55.456Z,9.43
2018-06-03T12:44:24.534Z,9.48
2018-06-03T12:46:53.357Z,8.50
2018-06-03T12:49:22.229Z,8.33
2018-06-03T12:51:51.102Z,10.13
2018-06-03T12:54:19.955Z,11.57
2018-06-03T12:56:48.792Z,11.97
2018-06-03T12:59:17.661Z,10.45
2018-06-03T13:01:46.477Z,11.20
2018-06-03T13:04:15.350Z,11.33
2018-06-03T13:06:44.217Z,10.35
2018-06-03T13:09:13.019Z,11.05
2018-06-03T13:11:41.865Z,10.25
2018-06-03T13:14:10.710Z,9.58
2018-06-03T13:16:39.347Z,9.93
2018-06-03T13:19:08.189Z,9.75
2018-06-03T13:21:37.014Z,9.05
2018-06-03T13:24:05.826Z,9.28
2018-06-03T13:26:34.663Z,9.98
2018-06-03T13:29:03.535Z,10.55
2018-06-03T13:31:32.681Z,9.70
2018-06-03T13:34:01.272Z,11.00
2018-06-03T13:36:30.456Z,9.95
2018-06-03T13:38:59.264Z,10.48
2018-06-03T13:41:28.080Z,12.50
2018-06-03T13:43:56.932Z,12.40
2018-06-03T13:46:25.832Z,13.98
2018-06-03T13:48:54.692Z,10.85
2018-06-03T13:51:23.586Z,12.63
2018-06-03T13:53:52.573Z,15.93
2018-06-03T13:56:21.435Z,17.67
2018-06-03T13:58:50.276Z,15.63
2018-06-03T14:01:19.114Z,14.80
2018-06-03T14:03:48.600Z,17.37
2018-06-03T14:06:18.032Z,17.57
2018-06-03T14:08:46.916Z,17.45
2018-06-03T14:11:16.108Z,19.50
2018-06-03T14:13:44.948Z,17.62
2018-06-03T14:16:14.105Z,15.72
2018-06-03T14:18:42.917Z,14.35
2018-06-03T14:21:11.566Z,13.93
2018-06-03T14:23:40.559Z,11.38
2018-06-03T14:26:09.484Z,12.40
2018-06-03T14:28:38.468Z,12.37
2018-06-03T14:31:10.380Z,13.58
2018-06-03T14:36:20.216Z,10.88
2018-06-03T14:38:48.533Z,13.50
2018-06-03T14:43:51.632Z,12.15
2018-06-03T14:46:20.554Z,10.23
2018-06-03T14:48:49.124Z,11.17
2018-06-03T14:51:17.763Z,11.20
2018-06-03T14:53:46.609Z,10.50
2018-06-03T14:56:15.173Z,9.20
2018-06-03T14:58:43.722Z,9.57
2018-06-03T15:01:12.340Z,9.43
2018-06-03T15:03:40.941Z,10.93
2018-06-03T15:06:09.548Z,8.67
2018-06-03T15:08:38.144Z,8.77
2018-06-03T15:11:06.719Z,7.57
2018-06-03T15:13:35.308Z,7.67
2018-06-03T15:16:03.937Z,8.17
2018-06-03T15:18:32.497Z,8.70
2018-06-03T15:21:01.048Z,7.40
2018-06-03T15:23:29.683Z,7.13
2018-06-03T15:25:58.351Z,6.40
2018-06-03T15:28:26.909Z,8.23
2018-06-03T15:30:55.477Z,7.47
2018-06-03T15:33:24.000Z,6.70
2018-06-03T15:35:52.576Z,6.97
2018-06-03T15:38:24.155Z,6.77
2018-06-03T15:41:02.380Z,6.03
2018-06-03T15:43:30.954Z,6.37
2018-06-03T15:45:59.530Z,5.97
2018-06-03T15:48:28.124Z,7.60
2018-06-03T15:50:56.717Z,7.47
2018-06-03T15:53:25.253Z,8.30
2018-06-03T15:55:53.841Z,7.77
2018-06-03T15:58:22.503Z,8.03
2018-06-03T16:00:51.096Z,8.53
2018-06-03T16:03:19.734Z,7.03
2018-06-03T16:05:48.307Z,8.50
2018-06-03T16:08:16.968Z,7.97
2018-06-03T16:10:45.533Z,8.40
2018-06-03T16:13:14.113Z,8.00
2018-06-03T16:15:42.981Z,11.17
2018-06-03T16:18:11.582Z,10.13
2018-06-03T16:20:40.219Z,13.13
2018-06-03T16:23:08.830Z,12.37
2018-06-03T16:25:37.555Z,12.30
2018-06-03T16:28:06.473Z,12.53
2018-06-03T16:30:35.278Z,13.60
2018-06-03T16:33:03.970Z,11.60
2018-06-03T16:35:32.530Z,13.13
2018-06-03T16:38:01.084Z,12.53
2018-06-03T16:40:29.707Z,11.03
2018-06-03T16:42:58.423Z,10.80
2018-06-03T16:45:30.377Z,13.40
2018-06-03T16:47:58.892Z,11.47
2018-06-03T16:50:27.429Z,10.67
2018-06-03T16:52:56.002Z,10.00
2018-06-03T16:55:24.558Z,11.40
2018-06-03T17:00:26.926Z,13.10
2018-06-03T17:02:55.488Z,16.93
2018-06-03T17:05:24.052Z,14.70
2018-06-03T17:07:52.588Z,14.03
2018-06-03T17:10:33.925Z,13.07
2018-06-03T17:13:02.449Z,15.87
2018-06-03T17:15:31.002Z,18.73
2018-06-03T17:17:59.535Z,16.10
2018-06-03T17:20:28.450Z,22.32
2018-06-03T17:22:57.498Z,23.10
2018-06-03T17:28:00.909Z,19.82
2018-06-03T17:30:29.758Z,20.82
2018-06-03T17:33:07.935Z,21.55
2018-06-03T17:35:36.791Z,19.80
2018-06-03T17:38:09.031Z,17.85
2018-06-03T17:40:37.934Z,19.57
2018-06-03T17:43:06.829Z,17.00
2018-06-03T17:45:44.850Z,18.35
2018-06-03T17:50:48.687Z,19.50
2018-06-03T17:53:17.638Z,18.48
2018-06-03T17:55:49.818Z,15.93
2018-06-03T17:58:27.841Z,19.27
2018-06-03T18:00:56.808Z,18.62
2018-06-03T18:03:25.798Z,18.15
2018-06-03T18:05:54.712Z,15.48
2018-06-03T18:08:23.720Z,16.40
2018-06-03T18:10:55.754Z,15.32
2018-06-03T18:13:33.922Z,16.12
2018-06-03T18:16:02.496Z,15.60
2018-06-03T18:18:31.344Z,15.35
2018-06-03T18:21:00.197Z,14.33
2018-06-03T18:23:32.210Z,16.52
2018-06-03T18:26:01.118Z,14.55
2018-06-03T18:28:33.070Z,14.90
2018-06-03T18:31:01.924Z,15.55
2018-06-03T18:33:30.898Z,14.80
2018-06-03T18:35:59.819Z,14.40
2018-06-03T18:38:38.116Z,14.70
2018-06-03T18:41:07.072Z,14.95
2018-06-03T18:43:36.161Z,14.03
2018-06-03T18:46:05.232Z,14.13
2018-06-03T18:51:08.706Z,12.90
2018-06-03T18:53:37.560Z,13.38
2018-06-03T18:56:06.406Z,14.73
2018-06-03T18:58:37.964Z,11.77
2018-06-03T19:01:06.451Z,9.90
2018-06-03T19:03:35.322Z,11.95
2018-06-03T19:06:04.152Z,11.83
2018-06-03T19:08:36.264Z,10.08
2018-06-03T19:11:05.480Z,11.22
2018-06-03T19:13:34.397Z,10.53
2018-06-03T19:16:03.459Z,10.58
2018-06-03T19:18:32.371Z,10.78
2018-06-03T19:21:01.683Z,11.97
2018-06-03T19:23:33.634Z,11.95
2018-06-03T19:26:02.514Z,12.47
2018-06-03T19:28:31.410Z,11.48
2018-06-03T19:31:00.322Z,11.53
2018-06-03T19:33:29.290Z,11.22
2018-06-03T19:36:01.494Z,10.43
2018-06-03T19:38:30.706Z,9.85
2018-06-03T19:40:59.598Z,10.85
2018-06-03T19:43:29.105Z,10.93
2018-06-03T19:45:58.052Z,11.48
2018-06-03T19:48:26.701Z,11.12
2018-06-03T19:50:55.603Z,10.78
2018-06-03T19:55:58.971Z,10.40
2018-06-03T19:58:30.855Z,12.53
2018-06-03T20:00:59.182Z,11.47
2018-06-03T20:03:27.488Z,12.70
2018-06-03T20:05:56.345Z,11.33
2018-06-03T20:08:25.278Z,11.00
2018-06-03T20:10:54.663Z,12.17
2018-06-03T20:13:23.668Z,12.43
2018-06-03T20:15:52.538Z,12.03
2018-06-03T20:18:20.904Z,13.10
2018-06-03T20:20:52.345Z,13.70
2018-06-03T20:23:21.272Z,12.40
2018-06-03T20:25:49.579Z,12.53
2018-06-03T20:28:17.854Z,13.77
2018-06-03T20:30:49.163Z,13.93
2018-06-03T20:33:17.209Z,12.03
2018-06-03T20:35:45.498Z,13.03
2018-06-03T20:38:13.871Z,14.23
2018-06-03T20:40:42.218Z,14.63
2018-06-03T20:43:10.533Z,13.30
2018-06-03T20:45:38.974Z,13.87
2018-06-03T20:48:07.328Z,14.10
2018-06-03T20:50:35.591Z,15.13
2018-06-03T20:53:03.884Z,15.20
2018-06-03T20:55:38.403Z,14.60
2018-06-03T20:58:09.754Z,14.37
2018-06-03T21:00:41.091Z,16.47
2018-06-03T21:03:21.884Z,17.10
2018-06-03T21:05:50.143Z,15.00
2018-06-03T21:08:18.429Z,18.97
2018-06-03T21:10:46.775Z,19.90
2018-06-03T21:13:15.121Z,22.20
2018-06-03T21:15:43.211Z,23.03
2018-06-03T21:18:11.875Z,25.17
2018-06-03T21:20:40.551Z,27.87
2018-06-03T21:23:08.894Z,27.73
2018-06-03T21:25:37.213Z,28.40
2018-06-03T21:28:05.762Z,29.43
2018-06-03T21:33:07.884Z,34.33
2018-06-03T21:35:36.213Z,33.73
2018-06-03T21:38:05.042Z,33.13
2018-06-03T21:40:34.037Z,33.07
2018-06-03T21:43:02.483Z,40.13
2018-06-03T21:45:30.790Z,39.27
2018-06-03T21:47:59.121Z,40.77
2018-06-03T21:50:27.928Z,45.57
2018-06-03T21:52:56.256Z,42.30
2018-06-03T21:55:24.537Z,39.70
2018-06-03T21:57:52.934Z,40.80
2018-06-03T22:00:21.224Z,41.30
2018-06-03T22:02:49.522Z,39.70
2018-06-03T22:05:17.794Z,39.87
2018-06-03T22:07:46.086Z,37.03
2018-06-03T22:10:14.397Z,37.47
2018-06-03T22:12:42.723Z,36.97
2018-06-03T22:15:10.994Z,34.03
2018-06-03T22:17:39.242Z,35.00
2018-06-03T22:20:07.484Z,42.87
2018-06-03T22:22:35.760Z,43.73
2018-06-03T22:25:04.052Z,46.93
2018-06-03T22:27:32.304Z,54.47
2018-06-03T22:30:00.570Z,57.67
2018-06-03T22:32:28.864Z,67.83
2018-06-03T22:34:57.107Z,70.03
2018-06-03T22:37:25.398Z,65.10
2018-06-03T22:39:53.638Z,66.27
2018-06-03T22:42:21.900Z,66.57
2018-06-03T22:44:50.153Z,82.30
2018-06-03T22:47:18.477Z,66.50
2018-06-03T22:49:46.740Z,65.10
2018-06-03T22:52:15.200Z,107.17
2018-06-03T22:54:43.612Z,71.33
2018-06-03T22:57:48.180Z,92.73
2018-06-03T23:00:22.863Z,82.23
2018-06-03T23:02:56.696Z,115.30
2018-06-03T23:05:24.961Z,105.30
2018-06-03T23:07:53.253Z,98.37
2018-06-03T23:10:21.751Z,111.07
2018-06-03T23:12:50.380Z,105.43
2018-06-03T23:15:18.653Z,99.73
2018-06-03T23:17:47.071Z,110.70
2018-06-03T23:20:15.325Z,106.37
2018-06-03T23:22:43.961Z,124.77
2018-06-03T23:25:12.201Z,118.70
2018-06-03T23:27:40.475Z,116.63
2018-06-03T23:30:08.784Z,118.13
2018-06-03T23:32:37.065Z,110.40
2018-06-03T23:35:05.916Z,101.93
2018-06-03T23:37:34.159Z,106.73
2018-06-03T23:40:02.425Z,93.17
2018-06-03T23:42:30.723Z,92.53
2018-06-03T23:44:59.367Z,87.20
2018-06-03T23:47:27.617Z,88.63
2018-06-03T23:49:55.888Z,96.07
2018-06-03T23:52:24.144Z,82.80
2018-06-03T23:54:52.492Z,92.60
2018-06-03T23:57:20.714Z,92.90
2018-06-03T23:59:49.003Z,77.63
